Richardson's Hourly Summary for Wednesday, July 11, 2018
Hour Temp
(f)
RH
(%)
Solar Rad.
(MJ/m2)
Rainfall
(in)
Wind
(mph)
7/11/2018 12:00 AM 80 71 0 0 1.54
7/11/2018 1:00 AM 79 74 0 0 0.14
7/11/2018 2:00 AM 78 75 0 0 0.37
7/11/2018 3:00 AM 77 80 0 0 0.34
7/11/2018 4:00 AM 77 81 0 0 0.62
7/11/2018 5:00 AM 76 81 0 0 0.66
7/11/2018 6:00 AM 76 81 0 0 0.12
7/11/2018 7:00 AM 76 81 0.03 0 1.09
7/11/2018 8:00 AM 77 79 0.13 0 1.34
7/11/2018 9:00 AM 77 78 0.32 0 3.24
7/11/2018 10:00 AM 79 69 0.94 0 2.94
7/11/2018 11:00 AM 84 55 2.05 0 2.47
7/11/2018 12:00 PM 88 51 1.71 0 2.04
7/11/2018 1:00 PM 92 38 2.93 0 3.32
7/11/2018 2:00 PM 94 31 3.35 0 4.73
7/11/2018 3:00 PM 96 26 3.17 0 4.88
7/11/2018 4:00 PM 96 28 2.42 0 4.18
7/11/2018 5:00 PM 96 30 2.49 0 6.84
7/11/2018 6:00 PM 94 33 1 0 5.08
7/11/2018 7:00 PM 92 36 0.47 0 5.38
7/11/2018 8:00 PM 88 52 0.23 0 5.04
7/11/2018 9:00 PM 86 53 0.04 0 4.42
7/11/2018 10:00 PM 84 61 0 0 3.72
7/11/2018 11:00 PM 82 61 0 0 3.74
Data Summary 84 58 21.28 0.00 2.84